KSLC/SLC METAR and TAF weather

Enter ICAO airport designator
Station Type Date Time Source
KSLC METAR 2020/01/21 14:54 UTC NOAA

KSLC 211454Z 00000KT 10SM FEW060 BKN075 BKN090 BKN200 00/M03 A3001 RMK AO2 SLP174 T00001028 53001


Station Type Date Time Source
KSLC Decoded METAR 2020/01/21 14:54 UTC NOAA

SALT LAKE CITY INTERNATIONAL AIRPORT , UT, United States (KSLC) 40-47N 111-58W 1286M
Jan 21, 2020 - 09:54 AM EST / 2020.01.21 1454 UTC
Wind: Calm:0
Visibility: 10 mile(s):0
Sky conditions: mostly cloudy
Temperature: 32.0 F (0.0 C)
Dew Point: 27.0 F (-2.8 C)
Relative Humidity: 81%
Pressure (altimeter): 30.01 in. Hg (1016 hPa)
Pressure tendency: 0.00 inches (0.1 hPa) higher than three hours ago
ob: KSLC 211454Z 00000KT 10SM FEW060 BKN075 BKN090 BKN200 00/M03 A3001 RMK AO2 SLP174 T00001028 53001
cycle: 15

Station Type Date Time Source
KSLC TAF 2020/01/21 15:06 UTC NOAA

TAF
AMD KSLC 211505Z 2115/2218 15006KT 6SM BR SCT030 BKN070
FM212100 29006KT 6SM HZ SCT030 BKN050
FM220300 16005KT 5SM BR VCSH BKN035
FM220500 15005KT 3SM -SHSN BKN035
FM221400 17006KT P6SM VCSH SCT040 BKN200

Example: see airport list